Time;durP1;ratioP1;P1;durP2;ratioP2;P2;SDS_P1;SDS_P2;PMS_P1;PMS_P2;Temp;Humidity;BMP_temperature;BMP_pressure;BME280_temperature;BME280_humidity;BME280_pressure;Samples;Min_cycle;Max_cycle;Signal;HPM_P1;HPM_P2
2023/01/23 00:01:23;;;;;;;17.20;12.07;;;;;;;2.08;75.28;100668.19;4951140;29;20228;-78
2023/01/23 00:03:49;;;;;;;16.10;10.85;;;;;;;2.07;75.28;100682.03;4951408;29;20277;-78
2023/01/23 00:06:16;;;;;;;15.47;11.50;;;;;;;2.06;75.85;100680.31;4948221;29;20308;-78
2023/01/23 00:08:44;;;;;;;19.85;11.00;;;;;;;2.04;75.51;100679.47;4950215;29;20301;-78
2023/01/23 00:11:15;;;;;;;18.20;12.50;;;;;;;2.02;75.51;100679.47;4949673;29;20244;-76
2023/01/23 00:13:40;;;;;;;15.25;11.20;;;;;;;2.01;75.63;100676.94;4951018;29;20201;-75
2023/01/23 00:16:08;;;;;;;17.03;11.90;;;;;;;2.01;75.69;100674.34;4949268;29;20216;-76
2023/01/23 00:18:34;;;;;;;16.52;13.00;;;;;;;2.01;75.92;100675.19;4950245;29;20315;-76
2023/01/23 00:21:06;;;;;;;16.10;10.60;;;;;;;2.01;75.93;100677.78;4948310;29;20636;-76
2023/01/23 00:23:32;;;;;;;20.50;12.15;;;;;;;2.02;75.91;100668.25;4951116;29;20205;-76
2023/01/23 00:26:02;;;;;;;20.50;12.35;;;;;;;2.02;75.89;100671.72;4950158;29;20212;-76
2023/01/23 00:28:28;;;;;;;20.02;11.60;;;;;;;2.04;75.61;100674.28;4949894;29;20589;-76
2023/01/23 00:31:00;;;;;;;17.00;12.00;;;;;;;2.06;75.64;100667.38;4948815;29;20741;-75
2023/01/23 00:33:25;;;;;;;16.52;12.05;;;;;;;2.08;75.73;100665.59;4950170;29;20216;-76
2023/01/23 00:35:54;;;;;;;18.58;12.13;;;;;;;2.10;75.42;100671.63;4930740;29;20200;-76
2023/01/23 00:38:19;;;;;;;22.90;13.65;;;;;;;2.09;75.62;100675.09;4949748;29;20227;-76
2023/01/23 00:40:44;;;;;;;16.47;11.27;;;;;;;2.07;75.43;100669.94;4948506;29;20228;-76
2023/01/23 00:43:10;;;;;;;18.00;11.30;;;;;;;2.07;75.41;100669.94;4932530;29;20213;-76
2023/01/23 00:45:36;;;;;;;20.13;11.93;;;;;;;2.07;75.41;100662.16;4948538;29;20287;-77
2023/01/23 00:48:02;;;;;;;14.50;10.38;;;;;;;2.08;75.80;100663.88;4929363;29;20264;-76
2023/01/23 00:50:27;;;;;;;17.57;12.20;;;;;;;2.08;75.47;100661.28;4950831;28;20197;-76
2023/01/23 00:52:53;;;;;;;15.97;11.60;;;;;;;2.08;75.45;100660.41;4951338;29;20577;-75
2023/01/23 00:55:18;;;;;;;19.10;11.07;;;;;;;2.07;75.30;100669.06;4953719;29;20207;-76
2023/01/23 00:57:43;;;;;;;16.20;10.60;;;;;;;2.08;75.29;100673.38;4952462;29;20216;-76
2023/01/23 01:00:10;;;;;;;12.27;10.10;;;;;;;2.08;75.28;100663.00;4949681;29;20221;-76
2023/01/23 01:02:35;;;;;;;15.98;9.55;;;;;;;2.08;75.18;100665.59;4950911;28;20209;-76
2023/01/23 01:05:01;;;;;;;17.67;9.70;;;;;;;2.07;75.51;100664.75;4951923;29;20832;-76
2023/01/23 01:07:27;;;;;;;17.45;10.75;;;;;;;2.08;75.28;100670.78;4952627;29;20295;-76
2023/01/23 01:09:52;;;;;;;12.10;9.40;;;;;;;2.09;75.21;100660.41;4929406;29;20331;-76
2023/01/23 01:12:18;;;;;;;14.70;8.47;;;;;;;2.10;75.01;100667.28;4951183;29;20256;-76
2023/01/23 01:14:43;;;;;;;15.63;8.97;;;;;;;2.11;75.02;100675.94;4951343;29;20205;-75
2023/01/23 01:17:09;;;;;;;13.00;8.80;;;;;;;2.13;74.98;100676.75;4952985;29;20557;-76
2023/01/23 01:19:35;;;;;;;12.10;9.03;;;;;;;2.12;74.94;100677.66;4952297;29;20260;-77
2023/01/23 01:22:01;;;;;;;10.82;9.05;;;;;;;2.13;74.95;100671.59;4933660;29;20204;-76
2023/01/23 01:24:27;;;;;;;12.93;8.60;;;;;;;2.12;74.92;100677.66;4930905;29;20272;-76
2023/01/23 01:26:52;;;;;;;14.77;10.00;;;;;;;2.10;75.01;100676.81;4932750;29;20251;-76
2023/01/23 01:29:18;;;;;;;16.27;10.40;;;;;;;2.07;74.83;100680.28;4937163;29;21214;-76
2023/01/23 01:31:43;;;;;;;15.30;10.60;;;;;;;2.08;74.73;100676.84;4933396;29;21012;-76
2023/01/23 01:34:08;;;;;;;17.03;9.97;;;;;;;2.07;74.84;100680.28;4950234;29;20285;-75
2023/01/23 01:36:34;;;;;;;15.67;10.10;;;;;;;2.09;75.02;100675.09;4952265;29;20670;-76
2023/01/23 01:39:00;;;;;;;12.60;9.77;;;;;;;2.10;74.70;100682.00;4947649;29;20228;-76
2023/01/23 01:41:25;;;;;;;12.40;8.30;;;;;;;2.10;74.76;100682.00;4949873;29;20205;-76
2023/01/23 01:43:52;;;;;;;14.40;9.40;;;;;;;2.09;74.59;100675.97;4950480;29;20201;-76
2023/01/23 01:46:25;;;;;;;13.48;9.55;;;;;;;2.07;74.82;100677.69;4952773;29;20207;-76
2023/01/23 01:49:04;;;;;;;16.90;9.85;;;;;;;2.08;74.30;100676.84;4950445;29;20232;-76
2023/01/23 01:51:30;;;;;;;16.25;10.38;;;;;;;2.07;74.45;100679.44;4947326;29;20235;-75
2023/01/23 01:54:27;;;;;;;13.37;8.83;;;;;;;2.06;74.60;100677.72;4948225;28;20213;-75
2023/01/23 01:57:06;;;;;;;18.17;10.20;;;;;;;2.04;74.44;100682.91;4915295;29;20293;-76
2023/01/23 01:59:37;;;;;;;16.27;10.10;;;;;;;2.01;74.36;100684.69;4918530;29;20435;-76
2023/01/23 02:02:08;;;;;;;16.60;10.35;;;;;;;1.98;74.75;100685.59;4914291;29;20776;-76
2023/01/23 02:04:37;;;;;;;15.48;10.90;;;;;;;1.96;74.68;100685.59;4931729;29;21041;-77
2023/01/23 02:07:10;;;;;;;12.57;9.80;;;;;;;1.94;74.67;100689.06;4912860;29;20205;-76
2023/01/23 02:09:37;;;;;;;13.68;9.48;;;;;;;1.90;74.99;100693.44;4933943;29;20241;-77
2023/01/23 02:12:03;;;;;;;9.43;6.80;;;;;;;1.89;74.66;100696.03;4929447;29;20312;-76
2023/01/23 02:14:28;;;;;;;11.65;8.98;;;;;;;1.83;74.57;100689.19;4915210;29;20228;-76
2023/01/23 02:16:58;;;;;;;10.30;8.60;;;;;;;1.81;75.01;100690.97;4916122;29;20695;-76
2023/01/23 02:19:38;;;;;;;15.63;8.23;;;;;;;1.77;74.95;100691.84;4914390;29;20218;-76
2023/01/23 02:22:14;;;;;;;12.95;8.52;;;;;;;1.74;74.87;100697.06;4930652;29;20556;-76
2023/01/23 02:24:56;;;;;;;9.95;8.20;;;;;;;1.67;75.00;100693.66;4930913;29;20631;-76
2023/01/23 02:27:21;;;;;;;12.73;10.75;;;;;;;1.65;74.81;100703.19;4914259;29;20217;-76
2023/01/23 02:29:47;;;;;;;13.00;10.13;;;;;;;1.63;74.93;100701.50;4915163;29;20284;-76
2023/01/23 02:32:13;;;;;;;12.65;9.20;;;;;;;1.64;74.73;100704.06;4914430;29;20217;-76
2023/01/23 02:34:40;;;;;;;15.40;11.93;;;;;;;1.66;74.93;100701.47;4915019;29;20468;-76
2023/01/23 02:37:07;;;;;;;13.20;9.93;;;;;;;1.65;75.06;100694.59;4932861;29;20445;-77
2023/01/23 02:39:33;;;;;;;13.35;9.70;;;;;;;1.66;75.03;100691.09;4913574;29;20261;-76
2023/01/23 02:42:00;;;;;;;16.80;11.35;;;;;;;1.68;75.23;100686.78;4932770;29;20188;-76
2023/01/23 02:44:48;;;;;;;14.27;10.48;;;;;;;1.68;75.30;100692.81;4913065;29;20231;-76
2023/01/23 02:47:16;;;;;;;15.50;9.00;;;;;;;1.69;75.31;100691.06;4910984;29;20209;-76
2023/01/23 02:49:42;;;;;;;15.10;10.90;;;;;;;1.69;75.47;100693.66;4930966;29;20245;-76
2023/01/23 02:52:09;;;;;;;12.65;9.65;;;;;;;1.69;75.43;100698.84;4931617;29;20320;-76
2023/01/23 02:54:35;;;;;;;16.42;10.30;;;;;;;1.65;75.28;100700.63;4930595;29;20226;-77
2023/01/23 02:57:01;;;;;;;18.43;12.00;;;;;;;1.67;75.29;100698.84;4915836;29;20301;-77
2023/01/23 03:02:13;;;;;;;20.13;12.70;;;;;;;1.69;75.44;100696.25;4931279;29;20193;-76
2023/01/23 03:04:39;;;;;;;21.55;14.90;;;;;;;1.70;75.71;100695.38;4928331;29;20796;-77
2023/01/23 03:07:04;;;;;;;23.93;14.97;;;;;;;1.72;76.18;100694.47;4930023;29;21234;-76
2023/01/23 03:09:29;;;;;;;21.30;14.87;;;;;;;1.73;75.87;100690.19;4912522;29;20245;-77
2023/01/23 03:11:55;;;;;;;19.80;11.27;;;;;;;1.74;75.92;100691.88;4929465;29;20249;-77
2023/01/23 03:14:22;;;;;;;24.83;14.33;;;;;;;1.73;76.08;100693.63;4930907;29;20500;-76
2023/01/23 03:16:52;;;;;;;18.95;12.13;;;;;;;1.73;75.98;100696.22;4912592;29;20206;-76
2023/01/23 03:19:22;;;;;;;22.20;14.40;;;;;;;1.74;76.31;100695.31;4926823;29;20234;-76
2023/01/23 03:21:49;;;;;;;19.83;13.07;;;;;;;1.75;76.00;100683.22;4910270;29;20221;-76
2023/01/23 03:24:15;;;;;;;19.60;13.18;;;;;;;1.75;76.30;100678.03;4926498;29;20297;-76
2023/01/23 03:26:42;;;;;;;21.88;14.90;;;;;;;1.75;76.10;100678.91;4912193;29;20204;-76
2023/01/23 03:32:06;;;;;;;18.45;13.40;;;;;;;1.72;76.34;100689.28;4928482;29;20222;-76
2023/01/23 03:34:32;;;;;;;15.20;11.35;;;;;;;1.70;76.27;100685.00;4912750;29;20188;-77
2023/01/23 03:36:59;;;;;;;19.77;13.20;;;;;;;1.70;76.56;100680.72;4913992;29;20395;-76
2023/01/23 03:42:08;;;;;;;19.73;12.05;;;;;;;1.70;76.92;100669.47;4929148;29;20280;-77
2023/01/23 03:44:35;;;;;;;19.30;14.35;;;;;;;1.70;76.72;100661.69;4927752;29;20194;-77
2023/01/23 03:47:01;;;;;;;19.43;13.60;;;;;;;1.72;76.68;100667.72;4913894;29;20205;-76
2023/01/23 03:49:26;;;;;;;18.07;13.10;;;;;;;1.73;76.57;100670.31;4912403;29;20535;-76
2023/01/23 03:52:00;;;;;;;15.05;11.20;;;;;;;1.75;76.61;100668.53;4913405;29;20222;-76
2023/01/23 03:54:27;;;;;;;24.73;12.15;;;;;;;1.76;76.78;100675.47;4927119;29;20209;-76
2023/01/23 03:56:53;;;;;;;15.57;12.40;;;;;;;1.77;76.91;100674.56;4914033;29;20202;-77
2023/01/23 03:59:44;;;;;;;22.95;12.70;;;;;;;1.77;76.85;100676.31;4913587;29;20292;-76
2023/01/23 04:02:10;;;;;;;17.47;11.90;;;;;;;1.77;76.75;100676.31;4929796;29;20197;-76
2023/01/23 04:04:36;;;;;;;17.53;10.33;;;;;;;1.75;76.65;100673.72;4929859;29;20753;-77
2023/01/23 04:07:05;;;;;;;23.20;13.38;;;;;;;1.77;76.47;100681.50;4929645;29;20208;-77
2023/01/23 04:09:31;;;;;;;21.73;12.40;;;;;;;1.75;76.61;100684.09;4913844;29;20256;-76
2023/01/23 04:11:58;;;;;;;20.67;10.90;;;;;;;1.76;76.74;100683.22;4928896;29;20647;-76
2023/01/23 04:14:25;;;;;;;13.43;10.85;;;;;;;1.74;76.63;100687.56;4912514;29;20209;-77
2023/01/23 04:16:52;;;;;;;14.93;10.55;;;;;;;1.76;76.44;100693.59;4913518;29;20204;-76
2023/01/23 04:19:18;;;;;;;16.23;11.68;;;;;;;1.77;76.65;100682.34;4928928;29;20232;-76
2023/01/23 04:21:45;;;;;;;17.98;10.60;;;;;;;1.79;76.35;100679.75;4929478;29;20193;-76
2023/01/23 04:24:11;;;;;;;16.48;10.20;;;;;;;1.82;76.61;100686.63;4914044;29;20544;-77
2023/01/23 04:26:37;;;;;;;15.45;10.73;;;;;;;1.82;76.73;100689.22;4915396;29;20252;-76
2023/01/23 04:29:03;;;;;;;17.10;11.10;;;;;;;1.83;76.33;100689.19;4933994;29;20225;-76
2023/01/23 04:31:29;;;;;;;19.45;10.15;;;;;;;1.87;76.35;100690.03;4934719;29;20368;-76
2023/01/23 04:33:55;;;;;;;17.77;10.67;;;;;;;1.87;76.12;100683.13;4915776;29;20297;-76
2023/01/23 04:36:21;;;;;;;18.25;9.93;;;;;;;1.88;75.87;100694.34;4929658;29;20225;-76
2023/01/23 04:38:47;;;;;;;15.10;9.90;;;;;;;1.88;75.97;100689.16;4915112;29;20301;-77
2023/01/23 04:41:21;;;;;;;12.70;7.55;;;;;;;1.89;75.80;100691.75;4924060;29;20220;-78
2023/01/23 04:43:48;;;;;;;15.80;8.73;;;;;;;1.88;75.66;100692.59;4936315;29;20220;-77
2023/01/23 04:46:14;;;;;;;13.65;9.40;;;;;;;1.90;75.91;100693.44;4937443;29;20213;-77
2023/01/23 04:48:53;;;;;;;12.88;9.73;;;;;;;1.89;75.67;100696.91;4915344;29;20229;-77
2023/01/23 04:51:20;;;;;;;17.17;11.35;;;;;;;1.88;75.53;100695.19;4928030;29;20225;-77
2023/01/23 04:53:45;;;;;;;12.03;8.90;;;;;;;1.90;75.22;100690.00;4925862;29;20238;-77
2023/01/23 04:56:11;;;;;;;12.83;8.77;;;;;;;1.91;75.00;100684.78;4919387;29;20205;-77
2023/01/23 04:58:36;;;;;;;14.13;8.40;;;;;;;1.91;75.11;100677.00;4930752;29;20217;-77
2023/01/23 05:01:05;;;;;;;9.05;7.78;;;;;;;1.94;74.93;100681.31;4912824;29;20797;-77
2023/01/23 05:03:33;;;;;;;11.25;7.82;;;;;;;1.94;75.11;100689.94;4932324;29;20195;-77
2023/01/23 05:05:59;;;;;;;11.02;8.18;;;;;;;1.94;74.77;100687.34;4933450;29;20194;-77
2023/01/23 05:08:25;;;;;;;13.13;9.27;;;;;;;1.92;74.62;100686.53;4929985;29;20245;-77
2023/01/23 05:11:02;;;;;;;17.10;9.05;;;;;;;1.93;74.99;100679.59;4915790;29;20288;-78
2023/01/23 05:13:27;;;;;;;13.30;9.97;;;;;;;1.92;74.52;100683.94;4914171;29;20317;-77
2023/01/23 05:15:53;;;;;;;12.00;8.83;;;;;;;1.88;74.81;100682.22;4932453;29;20218;-77
2023/01/23 05:18:19;;;;;;;15.90;9.07;;;;;;;1.87;74.72;100683.13;4915000;29;20922;-78
2023/01/23 05:20:45;;;;;;;13.73;9.85;;;;;;;1.84;75.02;100682.31;4931861;28;20245;-77
2023/01/23 05:23:11;;;;;;;15.97;9.93;;;;;;;1.82;74.99;100689.22;4951678;29;20254;-77
2023/01/23 05:25:47;;;;;;;14.95;10.38;;;;;;;1.81;74.96;100677.13;4951472;29;20220;-77
2023/01/23 05:28:13;;;;;;;10.83;9.07;;;;;;;1.79;75.08;100684.94;4967603;28;20252;-77
2023/01/23 05:30:44;;;;;;;17.55;9.10;;;;;;;1.79;74.78;100686.66;4950198;29;20197;-77
2023/01/23 05:33:19;;;;;;;15.18;10.43;;;;;;;1.79;74.95;100689.25;4965304;28;20221;-77
2023/01/23 05:35:45;;;;;;;16.23;10.90;;;;;;;1.76;74.81;100683.22;4952118;28;20243;-77
2023/01/23 05:38:12;;;;;;;18.80;9.90;;;;;;;1.76;75.26;100682.38;4950228;29;20312;-77
2023/01/23 05:40:38;;;;;;;10.15;8.50;;;;;;;1.76;75.14;100688.41;4948077;29;20219;-77
2023/01/23 05:43:23;;;;;;;18.40;13.02;;;;;;;1.78;74.99;100688.38;4929858;29;20268;-77
2023/01/23 05:46:06;;;;;;;13.80;8.20;;;;;;;1.81;75.21;100687.47;4947518;29;20696;-77
2023/01/23 05:48:49;;;;;;;6.97;5.90;;;;;;;1.81;74.64;100688.38;4949223;29;20229;-77
2023/01/23 05:51:15;;;;;;;7.40;5.70;;;;;;;1.84;74.05;100696.09;4947118;29;20205;-77
2023/01/23 05:53:40;;;;;;;6.23;5.13;;;;;;;1.89;73.87;100693.44;4951480;29;20201;-77
2023/01/23 05:56:08;;;;;;;9.27;5.23;;;;;;;1.92;72.88;100686.53;4943692;28;20277;-77
2023/01/23 05:58:41;;;;;;;6.65;4.90;;;;;;;1.97;72.29;100689.03;4949338;29;20503;-76
2023/01/23 06:01:30;;;;;;;6.63;5.13;;;;;;;2.01;71.18;100682.97;4945421;29;20212;-76
2023/01/23 06:04:15;;;;;;;9.88;6.50;;;;;;;2.07;71.26;100684.63;4946305;29;20252;-79
2023/01/23 06:07:10;;;;;;;9.60;5.75;;;;;;;2.13;70.83;100687.13;4947539;29;20265;-79
2023/01/23 06:09:36;;;;;;;5.55;4.95;;;;;;;2.16;70.73;100684.50;4947746;28;20271;-78
2023/01/23 06:12:05;;;;;;;8.03;5.70;;;;;;;2.14;70.73;100692.31;4935594;29;20665;-78
2023/01/23 06:14:30;;;;;;;22.20;13.38;;;;;;;2.13;70.61;100690.59;4944632;28;20209;-77
2023/01/23 06:16:56;;;;;;;11.53;7.00;;;;;;;2.16;70.18;100690.56;4945491;29;20416;-77
2023/01/23 06:19:21;;;;;;;8.70;6.17;;;;;;;2.16;70.01;100700.94;4945119;29;20221;-77
2023/01/23 06:21:48;;;;;;;10.20;4.95;;;;;;;2.17;70.03;100699.19;4945757;29;20204;-77
2023/01/23 06:24:13;;;;;;;8.60;5.40;;;;;;;2.18;69.76;100708.69;4943944;29;20197;-77
2023/01/23 06:26:38;;;;;;;5.70;4.27;;;;;;;2.19;68.80;100702.63;4961123;28;20561;-77
2023/01/23 06:29:05;;;;;;;5.55;3.13;;;;;;;2.16;66.63;100713.00;4962667;28;20507;-77
2023/01/23 06:31:31;;;;;;;4.37;3.17;;;;;;;2.18;63.99;100713.84;4961996;28;20704;-77
2023/01/23 06:33:59;;;;;;;3.13;2.83;;;;;;;2.21;63.25;100714.69;4961493;28;20197;-77
2023/01/23 06:36:29;;;;;;;3.60;2.92;;;;;;;2.27;61.89;100718.97;4929816;29;20748;-78
2023/01/23 06:38:55;;;;;;;3.80;3.47;;;;;;;2.33;61.39;100723.22;4942968;28;20315;-77
2023/01/23 06:41:25;;;;;;;1.92;1.80;;;;;;;2.34;60.63;100717.97;4927161;29;20449;-77
2023/01/23 06:43:53;;;;;;;6.18;3.53;;;;;;;2.34;59.35;100727.50;4911755;29;20281;-78
2023/01/23 06:46:22;;;;;;;4.35;2.60;;;;;;;2.39;59.27;100739.53;4925261;28;20213;-77
2023/01/23 06:48:47;;;;;;;4.60;2.23;;;;;;;2.43;59.26;100733.44;4956942;28;20232;-77
2023/01/23 06:51:13;;;;;;;2.63;1.93;;;;;;;2.44;58.91;100734.31;4947370;29;20267;-77
2023/01/23 06:53:41;;;;;;;2.88;2.17;;;;;;;2.49;59.25;100742.03;4945307;29;20741;-77
2023/01/23 06:56:07;;;;;;;2.90;2.40;;;;;;;2.51;58.42;100743.72;4959735;28;20280;-77
2023/01/23 06:58:37;;;;;;;6.03;2.50;;;;;;;2.44;57.77;100740.34;4956727;28;20228;-78
2023/01/23 07:01:14;;;;;;;4.05;2.67;;;;;;;2.43;58.22;100751.59;4942096;29;20215;-77
2023/01/23 07:03:58;;;;;;;3.47;2.20;;;;;;;2.53;57.98;100754.94;4943009;28;20699;-78
2023/01/23 07:06:23;;;;;;;2.93;2.70;;;;;;;2.49;57.81;100755.00;4943058;29;20204;-78
2023/01/23 07:08:49;;;;;;;1.70;1.60;;;;;;;2.56;58.43;100760.06;4942453;28;20431;-78
2023/01/23 07:11:15;;;;;;;2.60;2.40;;;;;;;2.58;58.29;100755.72;4941249;29;20236;-77
2023/01/23 07:13:41;;;;;;;3.72;2.35;;;;;;;2.61;58.10;100760.03;4944343;29;20193;-77
2023/01/23 07:16:07;;;;;;;3.03;2.37;;;;;;;2.56;57.79;100757.47;4947302;29;20206;-77
2023/01/23 07:18:32;;;;;;;4.18;3.38;;;;;;;2.58;57.41;100762.66;4947016;29;20868;-77
2023/01/23 07:21:02;;;;;;;2.53;2.15;;;;;;;2.60;57.35;100763.50;4964274;28;20235;-77
2023/01/23 07:23:27;;;;;;;3.15;2.85;;;;;;;2.62;57.30;100759.16;4964410;28;20200;-77
2023/01/23 07:25:58;;;;;;;4.70;2.20;;;;;;;2.59;57.07;100762.66;4949759;29;20197;-77
2023/01/23 07:28:23;;;;;;;12.77;10.63;;;;;;;2.62;57.28;100766.94;4949562;29;20263;-77
2023/01/23 07:30:49;;;;;;;2.70;2.27;;;;;;;2.45;56.30;100756.75;4949641;29;20244;-77
2023/01/23 07:33:14;;;;;;;3.70;2.83;;;;;;;2.44;56.39;100766.28;4949167;28;20264;-77
2023/01/23 07:35:40;;;;;;;3.43;2.17;;;;;;;2.55;56.00;100770.47;4950198;29;20205;-77
2023/01/23 07:38:05;;;;;;;3.60;3.00;;;;;;;2.57;55.88;100763.56;4961902;28;20216;-77
2023/01/23 07:40:30;;;;;;;4.90;2.47;;;;;;;2.66;55.75;100768.59;4956539;28;20318;-77
2023/01/23 07:42:56;;;;;;;2.90;2.10;;;;;;;2.72;55.73;100776.31;4949568;29;20197;-77
2023/01/23 07:45:21;;;;;;;3.27;2.60;;;;;;;2.72;55.58;100773.72;4947003;28;20213;-77
2023/01/23 07:47:46;;;;;;;3.30;2.07;;;;;;;2.75;55.71;100770.22;4948538;28;20213;-77
2023/01/23 07:50:12;;;;;;;4.37;2.70;;;;;;;2.78;56.06;100765.00;4946149;28;20299;-77
2023/01/23 07:52:38;;;;;;;4.03;2.83;;;;;;;2.76;56.17;100770.22;4946779;29;20225;-77
2023/01/23 07:55:04;;;;;;;3.83;2.20;;;;;;;2.83;56.04;100766.63;4949764;29;20212;-77
2023/01/23 07:57:30;;;;;;;2.55;2.15;;;;;;;2.83;56.30;100758.84;4948152;28;20211;-77
2023/01/23 07:59:55;;;;;;;3.40;2.10;;;;;;;2.86;56.24;100758.84;4951325;28;20225;-77
2023/01/23 08:02:21;;;;;;;5.13;2.70;;;;;;;2.88;56.34;100770.03;4950401;28;20200;-77
2023/01/23 08:04:46;;;;;;;2.70;2.40;;;;;;;2.91;56.07;100757.91;4953675;29;20197;-77
2023/01/23 08:07:12;;;;;;;4.47;2.60;;;;;;;2.92;56.13;100763.09;4953929;29;20344;-77
2023/01/23 08:09:37;;;;;;;3.10;2.13;;;;;;;2.90;56.04;100762.25;4952483;28;20239;-77
2023/01/23 08:12:03;;;;;;;3.40;2.30;;;;;;;2.96;56.27;100761.31;4950808;29;20319;-77
2023/01/23 08:14:29;;;;;;;3.42;2.15;;;;;;;3.01;56.06;100754.31;4950481;28;20217;-77
2023/01/23 08:16:54;;;;;;;3.00;2.20;;;;;;;3.04;56.06;100755.09;4949593;28;20313;-77
2023/01/23 08:19:20;;;;;;;3.73;2.63;;;;;;;3.06;56.67;100752.50;4948859;29;20298;-77
2023/01/23 08:21:46;;;;;;;3.07;2.40;;;;;;;3.08;56.45;100758.53;4951178;29;20197;-77
2023/01/23 08:24:12;;;;;;;2.45;2.17;;;;;;;3.08;56.66;100766.34;4949462;29;20220;-77
2023/01/23 08:26:38;;;;;;;3.67;2.55;;;;;;;3.07;56.54;100764.59;4952670;29;20212;-77
2023/01/23 08:29:03;;;;;;;3.27;2.40;;;;;;;3.09;56.59;100771.47;4949899;29;20728;-77
2023/01/23 08:31:29;;;;;;;3.23;2.30;;;;;;;3.10;56.68;100767.13;4950007;29;20824;-77
2023/01/23 08:33:54;;;;;;;4.57;3.90;;;;;;;3.13;56.59;100772.28;4953013;29;20966;-77
2023/01/23 08:36:20;;;;;;;5.03;2.97;;;;;;;3.13;56.49;100767.09;4948263;29;20500;-77
2023/01/23 08:38:46;;;;;;;3.40;3.03;;;;;;;3.13;56.80;100769.69;4950280;29;20475;-77
2023/01/23 08:41:11;;;;;;;3.50;3.20;;;;;;;3.15;56.47;100770.53;4950326;28;20205;-77
2023/01/23 08:43:37;;;;;;;3.87;2.80;;;;;;;3.12;56.57;100768.00;4949274;29;20593;-77
2023/01/23 08:46:03;;;;;;;4.13;2.97;;;;;;;3.14;56.86;100771.44;4950896;29;20550;-77
2023/01/23 08:48:28;;;;;;;4.00;3.43;;;;;;;3.16;56.64;100763.59;4949104;28;20217;-77
2023/01/23 08:51:03;;;;;;;5.47;3.10;;;;;;;3.20;56.50;100760.09;4947122;29;20643;-77
2023/01/23 08:53:29;;;;;;;5.38;3.70;;;;;;;3.25;56.51;100759.13;4949500;28;20494;-77
2023/01/23 08:56:21;;;;;;;4.93;3.97;;;;;;;3.22;56.59;100759.19;4948941;28;20209;-77
2023/01/23 08:58:47;;;;;;;4.47;3.10;;;;;;;3.28;56.47;100759.09;4947811;28;20244;-77
2023/01/23 09:01:15;;;;;;;4.82;2.80;;;;;;;3.34;56.39;100760.72;4949214;28;20224;-77
2023/01/23 09:03:41;;;;;;;5.57;3.53;;;;;;;3.37;56.77;100752.03;4947450;29;20205;-77
2023/01/23 09:06:08;;;;;;;5.60;3.70;;;;;;;3.40;56.67;100734.66;4949444;28;20347;-77
2023/01/23 09:08:34;;;;;;;4.78;2.90;;;;;;;3.43;56.69;100733.75;4947404;28;20240;-77
2023/01/23 09:11:01;;;;;;;4.13;3.57;;;;;;;3.44;56.66;100736.34;4947987;28;20251;-77
2023/01/23 09:13:26;;;;;;;6.43;3.80;;;;;;;3.46;56.65;100724.19;4948925;29;20221;-79
2023/01/23 09:15:52;;;;;;;3.10;2.80;;;;;;;3.51;56.64;100718.91;4951964;29;20665;-79
2023/01/23 09:18:17;;;;;;;5.60;3.60;;;;;;;3.51;56.62;100729.28;4952133;29;20690;-78
2023/01/23 09:20:43;;;;;;;6.57;3.57;;;;;;;3.54;56.61;100735.31;4952295;28;20216;-79
2023/01/23 09:23:08;;;;;;;7.50;3.60;;;;;;;3.58;56.43;100725.72;4952288;29;20210;-79
2023/01/23 09:25:34;;;;;;;2.97;2.70;;;;;;;3.58;56.53;100732.66;4948619;29;20214;-79
2023/01/23 09:27:59;;;;;;;4.50;3.50;;;;;;;3.60;56.44;100733.50;4934402;29;20198;-79
2023/01/23 09:30:25;;;;;;;4.50;3.43;;;;;;;3.60;56.27;100725.69;4945047;29;20291;-79
2023/01/23 09:32:51;;;;;;;7.10;4.10;;;;;;;3.59;56.01;100714.44;4950647;28;20256;-79
2023/01/23 09:35:17;;;;;;;5.72;4.55;;;;;;;3.68;56.29;100716.88;4951051;28;20868;-79
2023/01/23 09:38:01;;;;;;;5.47;4.20;;;;;;;3.67;56.62;100720.38;4953889;28;20662;-79
2023/01/23 09:40:44;;;;;;;5.10;4.10;;;;;;;3.64;55.97;100712.59;4950663;28;20200;-79
2023/01/23 09:43:21;;;;;;;4.55;3.63;;;;;;;3.66;55.69;100712.59;4951646;28;20197;-79
2023/01/23 09:46:14;;;;;;;5.65;3.40;;;;;;;3.69;55.95;100713.38;4951531;28;20197;-79
2023/01/23 09:48:47;;;;;;;5.88;3.95;;;;;;;3.75;55.80;100722.81;4950712;28;20238;-79
2023/01/23 09:51:21;;;;;;;3.83;2.88;;;;;;;3.70;55.55;100725.50;4944904;28;20205;-79
2023/01/23 09:53:47;;;;;;;5.40;4.00;;;;;;;3.61;55.19;100733.44;4950139;28;20235;-79
2023/01/23 09:56:26;;;;;;;6.70;3.40;;;;;;;3.60;55.37;100747.34;4949859;28;20197;-79
2023/01/23 09:58:58;;;;;;;5.07;3.58;;;;;;;3.55;55.35;100738.75;4950925;29;20244;-79
2023/01/23 10:01:26;;;;;;;5.78;3.60;;;;;;;3.52;54.96;100736.22;4950872;28;20833;-79
2023/01/23 10:03:52;;;;;;;7.65;5.07;;;;;;;3.52;55.45;100736.22;4951457;29;20463;-79
2023/01/23 10:06:22;;;;;;;6.97;5.00;;;;;;;3.46;55.68;100737.19;4951065;28;20542;-79
2023/01/23 10:08:47;;;;;;;4.55;3.78;;;;;;;3.54;55.77;100739.66;4949861;29;20335;-79
2023/01/23 10:11:45;;;;;;;5.73;4.40;;;;;;;3.51;55.75;100739.69;4950746;28;20300;-79
2023/01/23 10:14:13;;;;;;;6.68;3.83;;;;;;;3.66;55.45;100739.44;4945819;28;20225;-79
2023/01/23 10:16:54;;;;;;;8.02;4.85;;;;;;;3.69;55.52;100733.31;4951777;29;20276;-79
2023/01/23 10:19:34;;;;;;;6.15;4.88;;;;;;;3.82;55.50;100739.16;4951714;28;20236;-79
2023/01/23 10:22:08;;;;;;;8.10;5.10;;;;;;;3.70;55.75;100733.31;4945676;28;20224;-79
2023/01/23 10:24:48;;;;;;;10.32;5.88;;;;;;;3.75;56.13;100728.91;4941421;29;20201;-79
2023/01/23 10:27:19;;;;;;;6.80;4.25;;;;;;;3.80;56.17;100725.34;4950436;28;20211;-79
2023/01/23 10:30:06;;;;;;;5.60;4.68;;;;;;;3.92;55.91;100717.34;4951473;29;20239;-79
2023/01/23 10:32:47;;;;;;;4.55;4.15;;;;;;;3.93;56.00;100709.50;4941806;29;20220;-79
2023/01/23 10:35:22;;;;;;;7.70;4.60;;;;;;;3.99;56.34;100701.56;4948782;29;20213;-79
2023/01/23 10:38:10;;;;;;;7.28;5.72;;;;;;;4.06;55.84;100697.13;4948345;28;20271;-79
2023/01/23 10:43:20;;;;;;;6.90;4.70;;;;;;;4.06;56.20;100701.47;4948709;28;20212;-80
2023/01/23 10:45:48;;;;;;;7.03;3.75;;;;;;;4.06;56.00;100709.28;4940706;28;20205;-79
2023/01/23 10:48:49;;;;;;;4.60;3.20;;;;;;;4.03;55.92;100705.00;4948793;29;20243;-79
2023/01/23 10:51:28;;;;;;;7.28;5.30;;;;;;;4.00;55.90;100699.84;4956068;28;20205;-79
2023/01/23 10:54:04;;;;;;;4.80;3.70;;;;;;;4.04;55.92;100708.44;4948292;28;20275;-80
2023/01/23 10:56:31;;;;;;;6.03;4.50;;;;;;;3.95;56.05;100704.28;4950732;28;20223;-80
2023/01/23 10:59:00;;;;;;;6.78;4.30;;;;;;;4.03;55.54;100696.34;4950452;28;20224;-80
2023/01/23 11:01:31;;;;;;;4.32;3.50;;;;;;;4.06;55.58;100691.94;4950294;28;20213;-80
2023/01/23 11:04:09;;;;;;;6.30;3.47;;;;;;;4.15;55.22;100690.88;4951707;29;20213;-80
2023/01/23 11:06:34;;;;;;;4.78;3.92;;;;;;;4.16;55.05;100685.66;4950974;29;20213;-80
2023/01/23 11:09:00;;;;;;;5.73;3.53;;;;;;;4.24;54.96;100687.22;4952049;28;20250;-80
2023/01/23 11:11:27;;;;;;;5.50;4.53;;;;;;;4.27;54.72;100682.84;4951680;28;20217;-80
2023/01/23 11:14:15;;;;;;;4.35;3.47;;;;;;;4.32;54.36;100682.72;4951036;29;20260;-80
2023/01/23 11:16:42;;;;;;;7.00;3.25;;;;;;;4.39;54.36;100684.31;4949076;28;20223;-80
2023/01/23 11:19:07;;;;;;;7.30;4.65;;;;;;;4.26;54.31;100675.91;4955239;29;20221;-80
2023/01/23 11:21:50;;;;;;;5.63;4.40;;;;;;;4.30;54.17;100669.78;4957727;29;20828;-80
2023/01/23 11:24:25;;;;;;;5.65;3.35;;;;;;;4.28;54.27;100678.50;4955895;29;20287;-80
2023/01/23 11:27:14;;;;;;;6.22;4.20;;;;;;;4.33;54.27;100679.25;4954814;29;20255;-79
2023/01/23 11:29:59;;;;;;;4.40;3.58;;;;;;;4.28;54.37;100662.88;4951453;28;20663;-80
2023/01/23 11:32:27;;;;;;;4.57;3.47;;;;;;;4.29;54.29;100659.38;4948597;28;20364;-79
2023/01/23 11:35:20;;;;;;;6.88;3.90;;;;;;;4.40;54.38;100663.50;4950185;29;20216;-80
2023/01/23 11:37:45;;;;;;;4.65;3.45;;;;;;;4.46;54.46;100652.09;4951742;28;20236;-80
2023/01/23 11:40:18;;;;;;;6.70;3.80;;;;;;;4.40;54.37;100647.88;4949694;28;20327;-80
2023/01/23 11:42:45;;;;;;;4.63;3.33;;;;;;;4.53;54.72;100653.66;4950184;29;20279;-80
2023/01/23 11:45:39;;;;;;;4.53;3.53;;;;;;;4.52;54.71;100649.34;4950491;28;20777;-79
2023/01/23 11:48:35;;;;;;;5.28;3.85;;;;;;;4.66;54.28;100642.09;4952084;29;20248;-80